Airfield :
LOGIN :

Register | Disclaimer

   EN    FR    IT 

 










Legend :    VFR   Marginal VFR   IFR   Intensive IFR   Very Intensive IFR
Visi :
Ceiling :
>= 8 km
>= 3000ft
5 to 8 km
1000 to 3000 ft
1500m to 5 km
500 to 1000 ft
800 to 1500m
200 to 500 ft
< 800m
< 200 ft
Symbols :   Thunderstorms  Fog  Heavy snow  Heavy precipitations  Wind > 20 kt
SIGMETs :     Misc.  Thunderstorms  Icing  Turbulence  Mountain Waves  Volcanic Ashes






- Airport Elevation : 527 ft
- IATA code : DBV


LDDU - Dubrovnik

CURRENT METAR :
  • 050100Z 08008KT 9999 FEW035 22/16 Q1007

EXPIRED METARs :
  • 050030Z 08008KT 9999 FEW035 22/16 Q1006
  • 050000Z 07008KT 9999 FEW035 23/15 Q1006
  • 042330Z 03019G29KT 340V100 9999 FEW030 23/15 Q1006
  • 042300Z VRB19G32KT 9999 FEW030 22/15 Q1006
  • 042230Z 03027G40KT 330V070 9999 FEW025 22/15 Q1006

TAF TAF LDDU
Valid from the 05 at 00:00 until the 06 at 00:00 UTC


042325Z 0500/0600 15015KT 9999 BKN030 TX24/0511Z TN17/0517Z
PROB30
TEMPO 0500/0503 03025G40KT
PROB40
TEMPO 0506/0521 TSRA FEW020CB BKN030
TEMPO 0518/0600 31012KT



MET'MAP, your aeronautical weather chart ! - Copyright ORBIFLY December 2007 - Disclaimer

ORBIFLY MET'MAP TEAM :

Programming & Development : Alexandra Zaïnal
Concept & original design : Baudouin d'Aumeries
Assistance for programming : Marc-Olivier Méhu
Technical & hardware support : Manuel Goepfert

Contact : metmap@orbifly.com




SOURCES & CREDITS :

   NOAA